Elk Point, South Dakota
Current Conditions -  °F | °C
As of 10:52 PM on Sunday 19 Oct 2014 (Local Time) from KSUX Reporting Station
Clear Clear  
Wind Chill: 51°   Ceiling: Unl
Heat Index: 51°   Visibility: 10mi
Dew Point: 46°   Wind: 6mph
Humidity: 83%   Direction: 350°N
Pressure: 29.94"   Gusts: NA
Location:  42.68°N, 96.68°W
Report Text: KSUX 200352Z 35005KT 10SM CLR 11/08 A2994 RMK AO2 SLP140 T01060078
Loading
Personal Weather Stations






























Interactive Weather Map
Tropical Storm Tracking
New forecast layout! Learn more

10-Day Weather Forecast

Advertisements
Track Severe Weather on mobile